Time;durP1;ratioP1;P1;durP2;ratioP2;P2;SDS_P1;SDS_P2;PMS_P1;PMS_P2;Temp;Humidity;BMP_temperature;BMP_pressure;BME280_temperature;BME280_humidity;BME280_pressure;Samples;Min_cycle;Max_cycle;Signal;HPM_P1;HPM_P2
2023/01/04 00:01:03;;;;;;;;;;;2.10;99.90;;;;;;5165388;27;19986;-70
2023/01/04 00:03:30;;;;;;;;;;;2.10;99.90;;;;;;5165174;27;20114;-70
2023/01/04 00:05:57;;;;;;;;;;;2.10;99.90;;;;;;5165049;27;19919;-70
2023/01/04 00:08:26;;;;;;;;;;;2.10;99.90;;;;;;5184590;22;19920;-96
2023/01/04 00:10:54;;;;;;;;;;;2.10;99.90;;;;;;5144439;27;19926;-95
2023/01/04 00:13:20;;;;;;;;;;;2.10;99.90;;;;;;5179744;27;20002;-96
2023/01/04 00:15:49;;;;;;;;;;;2.30;99.90;;;;;;5180031;27;19911;-96
2023/01/04 00:18:15;;;;;;;;;;;2.80;99.90;;;;;;5179831;27;19911;-96
2023/01/04 00:20:42;;;;;;;;;;;2.80;99.90;;;;;;5179813;27;19930;-96
2023/01/04 00:23:09;;;;;;;;;;;2.30;99.90;;;;;;5171104;27;19945;-96
2023/01/04 00:25:38;;;;;;;;;;;2.50;99.90;;;;;;5147784;27;19971;-96
2023/01/04 00:28:05;;;;;;;;;;;2.40;99.90;;;;;;5158887;27;19911;-96
2023/01/04 00:30:32;;;;;;;;;;;2.00;99.90;;;;;;5159159;27;19915;-96
2023/01/04 00:33:00;;;;;;;;;;;2.00;99.90;;;;;;5159050;28;19918;-96
2023/01/04 00:35:27;;;;;;;;;;;2.50;99.90;;;;;;5157473;27;19911;-96
2023/01/04 00:37:54;;;;;;;;;;;3.70;99.90;;;;;;5158556;27;19920;-96
2023/01/04 00:40:20;;;;;;;;;;;2.00;99.90;;;;;;5158888;27;19927;-96
2023/01/04 00:42:47;;;;;;;;;;;2.50;99.90;;;;;;5159063;27;19914;-96
2023/01/04 00:51:24;;;;;;;;;;;2.10;99.90;;;;;;5154599;27;19926;-96
2023/01/04 00:53:51;;;;;;;;;;;2.10;99.90;;;;;;5151502;27;19923;-96
2023/01/04 00:56:18;;;;;;;;;;;2.00;99.90;;;;;;5158457;27;19919;-96
2023/01/04 00:58:45;;;;;;;;;;;2.00;99.90;;;;;;5161210;27;19919;-96
2023/01/04 01:03:39;;;;;;;;;;;2.00;99.90;;;;;;5145564;27;19920;-69
2023/01/04 01:06:07;;;;;;;;;;;2.00;99.90;;;;;;5147737;27;19986;-69
2023/01/04 01:08:36;;;;;;;;;;;1.90;99.90;;;;;;5138482;27;19920;-69
2023/01/04 01:11:03;;;;;;;;;;;1.90;99.90;;;;;;5139809;27;19926;-69
2023/01/04 01:13:30;;;;;;;;;;;1.90;99.90;;;;;;5148023;27;20230;-69
2023/01/04 01:15:56;;;;;;;;;;;1.90;99.90;;;;;;5147588;27;19991;-69
2023/01/04 01:18:36;;;;;;;;;;;1.90;99.90;;;;;;5145100;27;19950;-69
2023/01/04 01:21:04;;;;;;;;;;;1.90;99.90;;;;;;5148299;27;20252;-69
2023/01/04 01:23:30;;;;;;;;;;;1.90;99.90;;;;;;5147941;27;19982;-69
2023/01/04 01:26:01;;;;;;;;;;;1.90;99.90;;;;;;5135615;27;19958;-69
2023/01/04 01:28:28;;;;;;;;;;;1.90;99.90;;;;;;5127002;28;20001;-70
2023/01/04 01:30:55;;;;;;;;;;;1.90;99.90;;;;;;5126775;28;20222;-69
2023/01/04 01:33:21;;;;;;;;;;;1.80;99.90;;;;;;5126950;28;19990;-69
2023/01/04 01:35:48;;;;;;;;;;;1.80;99.90;;;;;;5124342;28;19997;-70
2023/01/04 01:38:14;;;;;;;;;;;1.80;99.90;;;;;;5126064;28;20166;-69
2023/01/04 01:40:41;;;;;;;;;;;1.80;99.90;;;;;;5116543;28;19920;-70
2023/01/04 01:43:16;;;;;;;;;;;1.80;99.90;;;;;;5106708;28;19988;-69
2023/01/04 01:45:42;;;;;;;;;;;1.80;99.90;;;;;;5106502;28;20003;-70
2023/01/04 01:48:12;;;;;;;;;;;1.80;99.90;;;;;;5106254;28;20219;-69
2023/01/04 01:50:41;;;;;;;;;;;1.80;99.90;;;;;;5106444;28;20204;-71
2023/01/04 01:53:08;;;;;;;;;;;1.80;99.90;;;;;;5109649;28;20278;-69
2023/01/04 01:55:36;;;;;;;;;;;1.70;99.90;;;;;;5135364;27;19991;-70
2023/01/04 01:58:08;;;;;;;;;;;1.80;99.90;;;;;;5126646;28;19987;-70
2023/01/04 02:00:36;;;;;;;;;;;1.90;99.90;;;;;;5127190;28;19978;-69
2023/01/04 02:03:08;;;;;;;;;;;1.90;99.90;;;;;;5126617;28;19943;-71
2023/01/04 02:05:35;;;;;;;;;;;1.90;99.90;;;;;;5126772;28;19920;-71
2023/01/04 02:08:03;;;;;;;;;;;1.90;99.90;;;;;;5126294;28;19926;-68
2023/01/04 02:10:30;;;;;;;;;;;2.00;99.90;;;;;;5134438;27;19987;-69
2023/01/04 02:12:58;;;;;;;;;;;2.00;99.90;;;;;;5126564;28;19920;-71
2023/01/04 02:15:26;;;;;;;;;;;2.00;99.90;;;;;;5126465;28;20026;-69
2023/01/04 02:18:02;;;;;;;;;;;2.00;99.90;;;;;;5122919;28;19926;-69
2023/01/04 02:20:33;;;;;;;;;;;2.00;99.90;;;;;;5126553;28;19926;-69
2023/01/04 02:23:11;;;;;;;;;;;2.10;99.90;;;;;;5126446;28;19982;-69
2023/01/04 02:25:50;;;;;;;;;;;2.10;99.90;;;;;;5135509;27;19927;-71
2023/01/04 02:28:22;;;;;;;;;;;2.10;99.90;;;;;;5146609;27;19920;-70
2023/01/04 02:31:09;;;;;;;;;;;2.10;99.90;;;;;;5147245;27;19982;-69
2023/01/04 02:33:42;;;;;;;;;;;2.20;99.90;;;;;;5147181;27;19920;-69
2023/01/04 02:36:13;;;;;;;;;;;2.10;99.90;;;;;;5146531;27;19979;-69
2023/01/04 02:38:45;;;;;;;;;;;2.20;99.90;;;;;;5140657;27;19920;-69
2023/01/04 02:41:17;;;;;;;;;;;2.20;99.90;;;;;;5138258;27;19919;-69
2023/01/04 02:46:35;;;;;;;;;;;2.20;99.90;;;;;;5146577;27;19957;-71
2023/01/04 02:51:48;;;;;;;;;;;2.20;99.90;;;;;;5136173;27;19961;-70
2023/01/04 02:54:17;;;;;;;;;;;2.20;99.90;;;;;;5125150;28;19920;-70
2023/01/04 02:56:54;;;;;;;;;;;2.20;99.90;;;;;;5106259;28;19926;-70
2023/01/04 02:59:28;;;;;;;;;;;2.20;99.90;;;;;;5105442;28;20156;-70
2023/01/04 03:07:39;;;;;;;;;;;2.20;99.90;;;;;;5104472;28;19922;-70
2023/01/04 03:10:08;;;;;;;;;;;2.20;99.90;;;;;;5133235;27;19919;-70
2023/01/04 03:12:37;;;;;;;;;;;2.20;99.90;;;;;;5143080;27;19926;-70
2023/01/04 03:15:08;;;;;;;;;;;2.10;99.90;;;;;;5146081;27;19915;-70
2023/01/04 03:17:41;;;;;;;;;;;2.20;99.90;;;;;;5145494;27;19919;-69
2023/01/04 03:20:09;;;;;;;;;;;2.20;99.90;;;;;;5146061;27;20118;-70
2023/01/04 03:36:32;;;;;;;;;;;2.00;99.90;;;;;;5124706;28;20123;-67
2023/01/04 03:50:18;;;;;;;;;;;2.00;99.90;;;;;;5043007;28;20294;-68
2023/01/04 03:52:46;;;;;;;;;;;2.00;99.90;;;;;;5078811;28;19987;-68
2023/01/04 03:55:13;;;;;;;;;;;2.00;99.90;;;;;;5110479;28;19926;-68
2023/01/04 03:57:40;;;;;;;;;;;2.00;99.90;;;;;;5106505;28;19956;-69
2023/01/04 04:00:09;;;;;;;;;;;2.00;99.90;;;;;;5105561;28;19983;-68
2023/01/04 04:02:36;;;;;;;;;;;2.00;99.90;;;;;;5104574;28;19979;-68
2023/01/04 04:10:33;;;;;;;;;;;2.10;99.90;;;;;;5112860;28;19927;-68
2023/01/04 04:12:59;;;;;;;;;;;2.10;99.90;;;;;;5104479;28;19955;-68
2023/01/04 04:15:26;;;;;;;;;;;2.20;99.90;;;;;;5104377;28;19983;-68
2023/01/04 04:17:52;;;;;;;;;;;2.20;99.90;;;;;;5104165;28;19979;-71
2023/01/04 04:20:19;;;;;;;;;;;2.20;99.90;;;;;;5104234;28;20263;-68
2023/01/04 04:22:46;;;;;;;;;;;2.20;99.90;;;;;;5104543;28;19979;-69
2023/01/04 04:25:14;;;;;;;;;;;2.20;99.90;;;;;;5112428;28;19920;-68
2023/01/04 04:27:40;;;;;;;;;;;2.20;99.90;;;;;;5103763;28;19926;-68
2023/01/04 04:30:07;;;;;;;;;;;2.20;99.90;;;;;;5104162;28;19959;-70
2023/01/04 04:32:34;;;;;;;;;;;2.20;99.90;;;;;;5104200;28;19920;-68
2023/01/04 04:35:01;;;;;;;;;;;2.20;99.90;;;;;;5108314;28;19958;-68
2023/01/04 04:37:30;;;;;;;;;;;2.20;99.90;;;;;;5108328;28;19987;-69
2023/01/04 04:39:57;;;;;;;;;;;2.20;99.90;;;;;;5134981;27;19982;-68
2023/01/04 04:42:24;;;;;;;;;;;2.20;99.90;;;;;;5144719;27;19979;-68
2023/01/04 04:44:51;;;;;;;;;;;2.20;99.90;;;;;;5148783;27;20169;-68
2023/01/04 04:47:17;;;;;;;;;;;2.30;99.90;;;;;;5148402;27;19954;-68
2023/01/04 04:49:44;;;;;;;;;;;2.30;99.90;;;;;;5149150;27;19957;-69
2023/01/04 04:52:10;;;;;;;;;;;2.30;99.90;;;;;;5149188;27;19955;-68
2023/01/04 04:54:37;;;;;;;;;;;2.30;99.90;;;;;;5141012;27;20156;-68
2023/01/04 04:57:04;;;;;;;;;;;2.30;99.90;;;;;;5140326;27;19919;-70
2023/01/04 04:59:32;;;;;;;;;;;2.30;99.90;;;;;;5148527;27;19976;-70
2023/01/04 05:01:58;;;;;;;;;;;2.30;99.90;;;;;;5148067;27;19978;-68
2023/01/04 05:04:25;;;;;;;;;;;2.30;99.90;;;;;;5148524;27;19962;-68
2023/01/04 05:06:52;;;;;;;;;;;2.30;99.90;;;;;;5147607;27;19920;-70
2023/01/04 05:09:19;;;;;;;;;;;2.40;99.90;;;;;;5134505;27;19920;-68
2023/01/04 05:14:31;;;;;;;;;;;2.50;99.90;;;;;;5140836;27;19926;-68
2023/01/04 05:16:58;;;;;;;;;;;2.50;99.90;;;;;;5142507;27;20383;-68
2023/01/04 05:19:24;;;;;;;;;;;2.40;99.90;;;;;;5147750;27;19990;-70
2023/01/04 05:21:51;;;;;;;;;;;2.50;99.90;;;;;;5147951;27;19958;-70
2023/01/04 05:24:18;;;;;;;;;;;2.50;99.90;;;;;;5141296;27;19950;-71
2023/01/04 05:26:44;;;;;;;;;;;2.60;99.90;;;;;;5138643;27;20190;-70
2023/01/04 05:30:49;;;;;;;;;;;2.60;99.90;;;;;;5147670;27;19958;-68
2023/01/04 05:31:58;;;;;;;;;;;2.60;99.90;;;;;;5147542;27;19982;-68
2023/01/04 05:34:24;;;;;;;;;;;2.70;99.90;;;;;;5147883;27;19926;-68
2023/01/04 05:36:51;;;;;;;;;;;2.70;99.90;;;;;;5146786;27;19938;-68
2023/01/04 05:39:18;;;;;;;;;;;2.70;99.90;;;;;;5140579;27;20178;-67
2023/01/04 05:44:29;;;;;;;;;;;2.70;99.90;;;;;;5125817;28;19961;-68
2023/01/04 05:46:55;;;;;;;;;;;2.80;99.90;;;;;;5126562;28;19955;-68
2023/01/04 05:49:23;;;;;;;;;;;2.90;99.90;;;;;;5127388;28;19959;-68
2023/01/04 05:51:50;;;;;;;;;;;2.90;99.90;;;;;;5120929;28;19959;-68
2023/01/04 05:54:17;;;;;;;;;;;2.90;99.90;;;;;;5126748;27;19954;-67
2023/01/04 05:56:43;;;;;;;;;;;3.00;99.90;;;;;;5137990;27;19919;-68
2023/01/04 05:59:10;;;;;;;;;;;3.00;99.90;;;;;;5147713;27;19957;-68
2023/01/04 06:01:36;;;;;;;;;;;3.00;99.90;;;;;;5147963;27;19947;-68
2023/01/04 06:04:03;;;;;;;;;;;3.00;99.90;;;;;;5147831;27;19958;-68
2023/01/04 06:06:31;;;;;;;;;;;3.10;99.90;;;;;;5147091;27;19951;-68
2023/01/04 06:08:58;;;;;;;;;;;3.00;99.90;;;;;;5140540;27;19925;-68
2023/01/04 06:11:24;;;;;;;;;;;3.10;99.90;;;;;;5138421;27;20138;-68
2023/01/04 06:13:51;;;;;;;;;;;3.10;99.90;;;;;;5132034;27;19983;-68
2023/01/04 06:16:17;;;;;;;;;;;3.10;99.90;;;;;;5125929;28;19979;-69
2023/01/04 06:18:44;;;;;;;;;;;3.00;99.90;;;;;;5108090;28;19963;-75
2023/01/04 06:21:11;;;;;;;;;;;3.00;99.90;;;;;;5108237;28;19919;-67
2023/01/04 06:23:39;;;;;;;;;;;3.10;99.90;;;;;;5126173;28;20254;-68
2023/01/04 06:26:05;;;;;;;;;;;3.10;99.90;;;;;;5134113;27;19990;-67
2023/01/04 06:28:32;;;;;;;;;;;3.10;99.90;;;;;;5126539;28;19951;-68
2023/01/04 06:31:02;;;;;;;;;;;3.10;99.90;;;;;;5126715;28;19982;-68
2023/01/04 06:33:29;;;;;;;;;;;3.20;99.90;;;;;;5126066;28;19926;-68
2023/01/04 06:35:56;;;;;;;;;;;3.20;99.90;;;;;;5125330;28;19949;-70
2023/01/04 06:38:23;;;;;;;;;;;3.20;99.90;;;;;;5125535;28;19951;-68
2023/01/04 06:40:51;;;;;;;;;;;3.20;99.90;;;;;;5137443;27;19983;-68
2023/01/04 06:43:17;;;;;;;;;;;3.20;99.90;;;;;;5146281;27;19982;-70
2023/01/04 06:45:44;;;;;;;;;;;3.30;99.90;;;;;;5146387;27;20092;-68
2023/01/04 06:48:11;;;;;;;;;;;3.30;99.90;;;;;;5145716;27;19955;-67
2023/01/04 06:50:37;;;;;;;;;;;3.40;99.90;;;;;;5146140;27;19927;-68
2023/01/04 06:53:04;;;;;;;;;;;3.40;99.90;;;;;;5146225;27;19970;-68
2023/01/04 06:55:31;;;;;;;;;;;3.50;99.90;;;;;;5136951;27;19941;-67
2023/01/04 06:57:59;;;;;;;;;;;3.50;99.90;;;;;;5124925;28;19951;-68
2023/01/04 07:00:25;;;;;;;;;;;3.50;99.90;;;;;;5125561;28;19983;-68
2023/01/04 07:02:52;;;;;;;;;;;3.60;99.90;;;;;;5125244;28;19983;-68
2023/01/04 07:05:19;;;;;;;;;;;3.60;99.90;;;;;;5126098;28;19919;-69
2023/01/04 07:07:45;;;;;;;;;;;3.70;99.90;;;;;;5125175;28;20179;-69
2023/01/04 07:10:12;;;;;;;;;;;3.70;99.90;;;;;;5113293;28;19962;-69
2023/01/04 07:12:38;;;;;;;;;;;3.70;99.90;;;;;;5122629;28;19951;-69
2023/01/04 07:15:07;;;;;;;;;;;3.80;99.90;;;;;;5124704;28;20162;-69
2023/01/04 07:17:34;;;;;;;;;;;3.80;99.90;;;;;;5124085;28;19982;-68
2023/01/04 07:20:00;;;;;;;;;;;3.90;99.90;;;;;;5125183;28;19983;-68
2023/01/04 07:22:27;;;;;;;;;;;3.90;99.90;;;;;;5125074;28;19955;-68
2023/01/04 07:24:54;;;;;;;;;;;3.90;99.90;;;;;;5128030;27;19973;-68
2023/01/04 07:27:20;;;;;;;;;;;4.00;99.90;;;;;;5128929;27;19978;-68
2023/01/04 07:29:47;;;;;;;;;;;4.00;99.90;;;;;;5124902;28;19962;-68
2023/01/04 07:32:15;;;;;;;;;;;4.00;99.90;;;;;;5124967;28;19966;-68
2023/01/04 07:34:42;;;;;;;;;;;4.10;99.90;;;;;;5124970;28;19920;-69
2023/01/04 07:37:09;;;;;;;;;;;4.10;99.90;;;;;;5124355;28;19919;-68
2023/01/04 07:39:35;;;;;;;;;;;4.20;99.90;;;;;;5132917;27;19919;-68
2023/01/04 07:42:02;;;;;;;;;;;4.20;99.90;;;;;;5137973;27;19979;-68
2023/01/04 07:44:29;;;;;;;;;;;4.20;99.90;;;;;;5145560;27;19987;-68
2023/01/04 07:46:56;;;;;;;;;;;4.30;99.90;;;;;;5144478;27;19919;-68
2023/01/04 07:49:24;;;;;;;;;;;4.20;99.90;;;;;;5144975;27;19920;-68
2023/01/04 07:51:51;;;;;;;;;;;4.30;99.90;;;;;;5145358;27;19999;-68
2023/01/04 07:54:17;;;;;;;;;;;4.30;99.90;;;;;;5138912;27;19982;-68
2023/01/04 07:56:44;;;;;;;;;;;4.30;99.90;;;;;;5136032;27;19923;-67
2023/01/04 07:59:12;;;;;;;;;;;4.30;99.90;;;;;;5145285;27;19987;-68
2023/01/04 08:01:39;;;;;;;;;;;4.30;99.90;;;;;;5145206;27;20005;-67
2023/01/04 08:04:05;;;;;;;;;;;4.40;99.90;;;;;;5145544;27;19925;-68
2023/01/04 08:06:34;;;;;;;;;;;4.40;99.90;;;;;;5144083;27;20119;-68
2023/01/04 08:09:00;;;;;;;;;;;4.40;99.90;;;;;;5137220;27;19920;-67
2023/01/04 08:11:27;;;;;;;;;;;4.40;99.90;;;;;;5136165;28;19994;-69
2023/01/04 08:13:54;;;;;;;;;;;4.50;99.90;;;;;;5145198;28;19920;-67
2023/01/04 08:16:21;;;;;;;;;;;4.50;99.90;;;;;;5144096;28;19919;-68
2023/01/04 08:18:48;;;;;;;;;;;4.50;99.90;;;;;;5145117;27;20278;-68
2023/01/04 08:21:15;;;;;;;;;;;4.60;99.90;;;;;;5145082;28;19986;-67
2023/01/04 08:23:42;;;;;;;;;;;4.60;99.90;;;;;;5143072;28;20423;-68
2023/01/04 08:26:10;;;;;;;;;;;4.60;99.90;;;;;;5131625;28;19920;-68
2023/01/04 08:28:37;;;;;;;;;;;4.70;99.90;;;;;;5124241;28;20254;-67
2023/01/04 08:31:05;;;;;;;;;;;4.80;99.90;;;;;;5124007;28;19987;-67
2023/01/04 08:33:32;;;;;;;;;;;4.80;99.90;;;;;;5124494;28;19991;-69
2023/01/04 08:36:06;;;;;;;;;;;4.80;99.90;;;;;;5123411;28;20119;-72
2023/01/04 08:38:33;;;;;;;;;;;4.80;99.90;;;;;;5123352;28;19990;-68
2023/01/04 08:41:01;;;;;;;;;;;4.90;99.90;;;;;;5124978;28;19951;-68
2023/01/04 08:43:27;;;;;;;;;;;4.90;99.90;;;;;;5123998;28;19990;-68
2023/01/04 08:45:54;;;;;;;;;;;5.00;99.90;;;;;;5123860;28;19920;-67
2023/01/04 08:48:20;;;;;;;;;;;5.00;99.90;;;;;;5123922;28;19927;-68
2023/01/04 08:50:47;;;;;;;;;;;5.00;99.90;;;;;;5124011;28;19920;-67
2023/01/04 08:53:16;;;;;;;;;;;5.10;99.90;;;;;;5121649;28;20007;-67
2023/01/04 08:55:48;;;;;;;;;;;5.10;99.90;;;;;;5133566;28;19958;-69
2023/01/04 08:58:16;;;;;;;;;;;5.10;99.90;;;;;;5144428;27;19986;-68
2023/01/04 09:00:43;;;;;;;;;;;5.10;99.90;;;;;;5144765;28;20266;-68
2023/01/04 09:03:16;;;;;;;;;;;5.20;99.90;;;;;;5141753;28;19974;-67
2023/01/04 09:05:43;;;;;;;;;;;5.20;99.90;;;;;;5144042;28;19919;-69
2023/01/04 09:08:10;;;;;;;;;;;5.30;99.90;;;;;;5141459;27;19955;-68
2023/01/04 09:10:37;;;;;;;;;;;5.30;99.90;;;;;;5114186;28;19920;-70
2023/01/04 09:13:04;;;;;;;;;;;5.30;99.90;;;;;;5103407;28;20204;-69
2023/01/04 09:15:32;;;;;;;;;;;5.40;99.90;;;;;;5103291;28;19987;-68
2023/01/04 09:17:59;;;;;;;;;;;5.40;99.90;;;;;;5102456;28;19927;-69
2023/01/04 09:20:26;;;;;;;;;;;5.50;99.90;;;;;;5104518;28;20170;-69
2023/01/04 09:22:53;;;;;;;;;;;5.50;99.90;;;;;;5106907;28;19927;-69
2023/01/04 09:25:41;;;;;;;;;;;5.60;99.90;;;;;;5131477;27;19920;-70
2023/01/04 09:28:08;;;;;;;;;;;5.70;99.90;;;;;;5106024;28;19955;-68
2023/01/04 09:30:36;;;;;;;;;;;5.70;99.90;;;;;;5107017;28;19958;-69
2023/01/04 09:33:21;;;;;;;;;;;5.80;99.90;;;;;;5105924;28;19970;-69
2023/01/04 09:36:00;;;;;;;;;;;5.90;99.90;;;;;;5102819;28;19982;-68
2023/01/04 09:38:27;;;;;;;;;;;6.00;99.90;;;;;;5111662;28;20115;-69
2023/01/04 09:40:58;;;;;;;;;;;6.10;99.90;;;;;;5132578;27;20211;-69
2023/01/04 09:43:28;;;;;;;;;;;6.10;99.90;;;;;;5127231;28;19982;-69
2023/01/04 09:45:59;;;;;;;;;;;6.10;99.90;;;;;;5126433;28;19928;-69
2023/01/04 09:48:28;;;;;;;;;;;6.20;99.90;;;;;;5126609;28;19934;-69
2023/01/04 09:50:57;;;;;;;;;;;6.20;99.90;;;;;;5126790;28;19990;-69
2023/01/04 09:53:27;;;;;;;;;;;6.30;99.90;;;;;;5126826;28;20139;-69
2023/01/04 09:55:56;;;;;;;;;;;6.40;99.90;;;;;;5137938;27;19979;-69
2023/01/04 09:58:25;;;;;;;;;;;6.50;99.90;;;;;;5147088;27;20135;-69
2023/01/04 10:01:03;;;;;;;;;;;6.50;99.90;;;;;;5144598;27;19955;-69
2023/01/04 10:03:31;;;;;;;;;;;6.60;99.90;;;;;;5147038;27;19935;-69
2023/01/04 10:05:57;;;;;;;;;;;6.70;99.90;;;;;;5146750;27;19962;-69
2023/01/04 10:08:24;;;;;;;;;;;6.70;99.90;;;;;;5147126;27;19987;-69
2023/01/04 10:11:05;;;;;;;;;;;6.70;99.90;;;;;;5130262;27;19970;-70
2023/01/04 10:13:40;;;;;;;;;;;6.70;99.90;;;;;;5126644;28;20164;-68
2023/01/04 10:16:14;;;;;;;;;;;6.70;99.90;;;;;;5125571;28;19927;-69
2023/01/04 10:18:45;;;;;;;;;;;6.80;99.90;;;;;;5126427;28;19954;-68
2023/01/04 10:21:16;;;;;;;;;;;6.80;99.90;;;;;;5126062;28;20128;-69
2023/01/04 10:23:50;;;;;;;;;;;6.80;99.90;;;;;;5127729;27;19920;-68
2023/01/04 10:26:21;;;;;;;;;;;6.80;99.90;;;;;;5137143;27;19919;-69
2023/01/04 10:28:56;;;;;;;;;;;6.80;99.90;;;;;;5146977;27;19919;-68
2023/01/04 10:31:27;;;;;;;;;;;6.80;99.90;;;;;;5145131;27;20230;-70
2023/01/04 10:33:57;;;;;;;;;;;6.90;99.90;;;;;;5144003;27;20249;-69
2023/01/04 10:36:26;;;;;;;;;;;6.90;99.90;;;;;;5146074;27;19919;-69
2023/01/04 10:38:57;;;;;;;;;;;7.00;99.90;;;;;;5143165;27;20120;-68
2023/01/04 10:41:26;;;;;;;;;;;7.00;99.90;;;;;;5131766;27;19926;-68
2023/01/04 10:44:04;;;;;;;;;;;7.00;99.90;;;;;;5123370;28;19987;-68
2023/01/04 10:46:38;;;;;;;;;;;7.00;99.90;;;;;;5124926;28;19926;-68
2023/01/04 10:49:07;;;;;;;;;;;7.00;99.90;;;;;;5125850;28;19919;-69
2023/01/04 10:51:37;;;;;;;;;;;7.10;99.90;;;;;;5125764;28;20175;-68
2023/01/04 10:54:08;;;;;;;;;;;7.10;99.90;;;;;;5130337;27;20096;-69
2023/01/04 10:56:38;;;;;;;;;;;7.10;99.90;;;;;;5136976;27;19986;-68
2023/01/04 10:59:09;;;;;;;;;;;7.10;99.90;;;;;;5146246;27;19986;-68
2023/01/04 11:01:38;;;;;;;;;;;7.20;99.90;;;;;;5145814;27;19926;-69
2023/01/04 11:04:09;;;;;;;;;;;7.20;99.90;;;;;;5146349;27;19919;-68
2023/01/04 11:06:39;;;;;;;;;;;7.20;99.90;;;;;;5145463;27;19919;-68
2023/01/04 11:09:32;;;;;;;;;;;7.30;99.90;;;;;;5138056;27;19995;-68
2023/01/04 11:12:00;;;;;;;;;;;7.30;99.90;;;;;;5104747;28;19962;-69
2023/01/04 11:14:28;;;;;;;;;;;7.40;99.90;;;;;;5104488;28;19920;-69
2023/01/04 11:16:58;;;;;;;;;;;7.40;99.90;;;;;;5103966;28;19959;-70
2023/01/04 11:19:37;;;;;;;;;;;7.40;99.90;;;;;;5102189;28;19920;-69
2023/01/04 11:22:07;;;;;;;;;;;7.50;99.90;;;;;;5104895;28;20088;-68
2023/01/04 11:24:34;;;;;;;;;;;7.50;99.90;;;;;;5112777;28;19920;-69
2023/01/04 11:27:04;;;;;;;;;;;7.60;99.90;;;;;;5104073;28;19920;-70
2023/01/04 11:29:33;;;;;;;;;;;7.70;99.90;;;;;;5104276;28;19920;-68
2023/01/04 11:32:03;;;;;;;;;;;7.70;99.90;;;;;;5104594;28;19991;-68
2023/01/04 11:34:43;;;;;;;;;;;7.80;99.90;;;;;;5104414;28;20215;-69
2023/01/04 11:37:22;;;;;;;;;;;7.90;99.90;;;;;;5103930;28;20207;-68
2023/01/04 11:39:50;;;;;;;;;;;7.90;99.90;;;;;;5115836;28;19934;-68
2023/01/04 11:42:19;;;;;;;;;;;8.00;99.90;;;;;;5104188;28;19947;-69
2023/01/04 11:45:02;;;;;;;;;;;8.00;99.90;;;;;;5101116;28;19959;-68
2023/01/04 11:47:30;;;;;;;;;;;8.10;99.90;;;;;;5103740;28;19955;-68
2023/01/04 11:49:57;;;;;;;;;;;8.20;99.90;;;;;;5104450;28;19920;-68
2023/01/04 11:52:28;;;;;;;;;;;8.20;99.90;;;;;;5104253;28;19959;-70
2023/01/04 11:55:15;;;;;;;;;;;8.20;99.90;;;;;;5122429;27;19920;-69
2023/01/04 11:57:42;;;;;;;;;;;8.30;99.90;;;;;;5125918;27;19947;-69
2023/01/04 12:00:10;;;;;;;;;;;8.30;99.90;;;;;;5124656;28;19920;-69
2023/01/04 12:02:38;;;;;;;;;;;8.30;99.90;;;;;;5124248;28;19927;-69
2023/01/04 12:05:11;;;;;;;;;;;8.30;99.90;;;;;;5124436;28;19995;-69
2023/01/04 12:07:40;;;;;;;;;;;8.30;99.90;;;;;;5123422;28;19920;-69
2023/01/04 12:10:17;;;;;;;;;;;8.30;99.90;;;;;;5132801;28;19955;-69
2023/01/04 12:12:44;;;;;;;;;;;8.30;99.90;;;;;;5143187;28;20199;-70
2023/01/04 12:15:20;;;;;;;;;;;8.20;99.90;;;;;;5139770;28;20207;-69
2023/01/04 12:17:52;;;;;;;;;;;8.20;99.90;;;;;;5144513;27;19925;-69
2023/01/04 12:20:20;;;;;;;;;;;8.20;99.90;;;;;;5144645;28;19920;-69
2023/01/04 12:22:47;;;;;;;;;;;8.20;99.90;;;;;;5144774;28;19927;-70
2023/01/04 12:25:28;;;;;;;;;;;8.30;99.90;;;;;;5135992;28;19919;-69
2023/01/04 12:27:55;;;;;;;;;;;8.30;99.90;;;;;;5123801;28;19951;-70
2023/01/04 12:30:40;;;;;;;;;;;8.30;99.90;;;;;;5123943;28;19942;-69
2023/01/04 12:33:26;;;;;;;;;;;8.30;99.90;;;;;;5124277;28;19966;-69
2023/01/04 12:36:01;;;;;;;;;;;8.40;99.90;;;;;;5123831;28;19991;-69
2023/01/04 12:38:46;;;;;;;;;;;8.40;99.90;;;;;;5124008;28;19919;-68
2023/01/04 12:41:23;;;;;;;;;;;8.40;99.90;;;;;;5109525;28;19991;-68
2023/01/04 12:43:50;;;;;;;;;;;8.40;99.90;;;;;;5118906;28;20080;-68
2023/01/04 12:49:43;;;;;;;;;;;8.40;99.90;;;;;;5131394;27;19922;-68
2023/01/04 12:52:28;;;;;;;;;;;8.40;99.90;;;;;;5140086;28;19983;-69
2023/01/04 12:54:57;;;;;;;;;;;8.40;99.90;;;;;;5134520;27;19954;-68
2023/01/04 12:57:24;;;;;;;;;;;8.40;99.90;;;;;;5143348;27;20141;-69
2023/01/04 12:59:55;;;;;;;;;;;8.50;99.90;;;;;;5137914;27;19924;-69
2023/01/04 13:02:22;;;;;;;;;;;8.50;99.90;;;;;;5127871;28;20150;-68
2023/01/04 13:04:49;;;;;;;;;;;8.50;99.90;;;;;;5116541;28;19920;-68
2023/01/04 13:07:21;;;;;;;;;;;8.50;99.90;;;;;;5106520;28;19990;-69
2023/01/04 13:09:52;;;;;;;;;;;8.50;99.90;;;;;;5114792;28;20086;-69
2023/01/04 13:12:42;;;;;;;;;;;8.50;99.90;;;;;;5127241;27;20002;-68
2023/01/04 13:15:18;;;;;;;;;;;8.50;99.90;;;;;;5108808;28;19958;-69
2023/01/04 13:17:44;;;;;;;;;;;8.50;99.90;;;;;;5127060;28;19990;-69
2023/01/04 13:20:15;;;;;;;;;;;8.50;99.90;;;;;;5127437;28;19951;-68
2023/01/04 13:22:46;;;;;;;;;;;8.50;99.90;;;;;;5127564;28;19982;-69
2023/01/04 13:25:21;;;;;;;;;;;8.60;99.90;;;;;;5118518;28;20207;-69
2023/01/04 13:27:54;;;;;;;;;;;8.60;99.90;;;;;;5106217;28;19966;-70
2023/01/04 13:30:36;;;;;;;;;;;8.60;99.90;;;;;;5106464;28;19987;-68
2023/01/04 13:33:14;;;;;;;;;;;8.60;99.90;;;;;;5103289;28;20063;-69
2023/01/04 13:35:40;;;;;;;;;;;8.60;99.90;;;;;;5108306;28;20155;-71
2023/01/04 13:38:12;;;;;;;;;;;8.60;99.90;;;;;;5125604;28;19919;-69
2023/01/04 13:40:58;;;;;;;;;;;8.60;99.90;;;;;;5132508;27;19954;-69
2023/01/04 13:43:38;;;;;;;;;;;8.60;99.90;;;;;;5127077;28;20211;-69
2023/01/04 13:46:12;;;;;;;;;;;8.60;99.90;;;;;;5126300;28;20170;-69
2023/01/04 13:48:41;;;;;;;;;;;8.60;99.90;;;;;;5126894;28;19955;-69
2023/01/04 13:51:13;;;;;;;;;;;8.60;99.90;;;;;;5139851;27;19982;-69
2023/01/04 13:53:40;;;;;;;;;;;8.60;99.90;;;;;;5136101;27;20089;-69
2023/01/04 13:56:17;;;;;;;;;;;8.60;99.90;;;;;;5137751;27;19939;-69
2023/01/04 13:58:43;;;;;;;;;;;8.70;99.90;;;;;;5147209;27;19991;-69
2023/01/04 14:01:14;;;;;;;;;;;8.60;99.90;;;;;;5147343;27;19947;-69
2023/01/04 14:03:43;;;;;;;;;;;8.70;99.90;;;;;;5147226;27;19990;-69
2023/01/04 14:06:14;;;;;;;;;;;8.70;99.90;;;;;;5145847;27;19986;-69
2023/01/04 14:08:45;;;;;;;;;;;8.70;99.90;;;;;;5145492;27;20296;-69
2023/01/04 14:11:57;;;;;;;;;;;8.70;99.90;;;;;;5134887;27;19926;-70
2023/01/04 14:14:03;;;;;;;;;;;8.70;99.90;;;;;;5126068;28;19920;-69
2023/01/04 14:16:32;;;;;;;;;;;8.70;99.90;;;;;;5123092;28;19966;-69
2023/01/04 14:19:20;;;;;;;;;;;8.70;99.90;;;;;;5126165;28;19951;-69
2023/01/04 14:21:48;;;;;;;;;;;8.70;99.90;;;;;;5123469;28;19995;-69
2023/01/04 14:24:29;;;;;;;;;;;8.70;99.90;;;;;;5132240;27;19920;-69
2023/01/04 14:26:56;;;;;;;;;;;8.70;99.90;;;;;;5133565;27;19960;-69
2023/01/04 14:29:29;;;;;;;;;;;8.70;99.90;;;;;;5125821;28;19920;-69
2023/01/04 14:32:07;;;;;;;;;;;8.70;99.90;;;;;;5123422;28;19928;-69
2023/01/04 14:34:35;;;;;;;;;;;8.70;99.90;;;;;;5126151;28;19995;-69
2023/01/04 14:37:03;;;;;;;;;;;8.70;99.90;;;;;;5125026;28;19942;-69
2023/01/04 14:39:32;;;;;;;;;;;8.70;99.90;;;;;;5124966;28;19948;-69
2023/01/04 14:42:00;;;;;;;;;;;8.70;99.90;;;;;;5113155;28;19920;-69
2023/01/04 14:44:29;;;;;;;;;;;8.70;99.90;;;;;;5113867;28;19919;-69
2023/01/04 14:46:57;;;;;;;;;;;8.70;99.90;;;;;;5124858;28;19965;-70
2023/01/04 14:49:25;;;;;;;;;;;8.70;99.90;;;;;;5121373;28;19948;-68
2023/01/04 14:51:54;;;;;;;;;;;8.80;99.90;;;;;;5125084;28;19992;-68
2023/01/04 14:54:21;;;;;;;;;;;8.80;99.90;;;;;;5118834;28;19959;-71
2023/01/04 14:56:48;;;;;;;;;;;8.80;99.90;;;;;;5113004;28;19920;-68
2023/01/04 14:59:15;;;;;;;;;;;8.80;99.90;;;;;;5104787;28;19927;-68
2023/01/04 15:01:44;;;;;;;;;;;8.80;99.90;;;;;;5109181;28;19934;-69
2023/01/04 15:04:10;;;;;;;;;;;8.80;99.90;;;;;;5125413;28;19919;-68
2023/01/04 15:06:46;;;;;;;;;;;8.80;99.90;;;;;;5119037;28;19919;-68
2023/01/04 15:09:14;;;;;;;;;;;8.90;99.90;;;;;;5115619;28;19983;-68
2023/01/04 15:11:49;;;;;;;;;;;8.90;99.90;;;;;;5131960;27;20229;-68
2023/01/04 15:14:16;;;;;;;;;;;8.90;99.90;;;;;;5119226;28;19951;-68
2023/01/04 15:16:43;;;;;;;;;;;8.80;99.90;;;;;;5119631;28;19987;-68
2023/01/04 15:19:09;;;;;;;;;;;8.90;99.90;;;;;;5115740;28;19927;-69
2023/01/04 15:21:42;;;;;;;;;;;8.80;99.90;;;;;;5113411;28;19988;-68
2023/01/04 15:24:09;;;;;;;;;;;8.80;99.90;;;;;;5119192;28;20200;-69
2023/01/04 15:26:37;;;;;;;;;;;8.80;99.90;;;;;;5121115;28;20018;-68
2023/01/04 15:29:05;;;;;;;;;;;8.70;99.90;;;;;;5124528;28;20352;-68
2023/01/04 15:31:32;;;;;;;;;;;8.60;99.90;;;;;;5127618;27;19919;-68
2023/01/04 15:33:58;;;;;;;;;;;8.60;99.90;;;;;;5116888;28;19926;-69
2023/01/04 15:36:25;;;;;;;;;;;8.60;99.90;;;;;;5130909;27;19983;-68
2023/01/04 15:38:53;;;;;;;;;;;8.60;99.90;;;;;;5137556;27;19926;-68
2023/01/04 15:44:08;;;;;;;;;;;8.50;99.90;;;;;;5112416;27;19999;-68
2023/01/04 15:46:35;;;;;;;;;;;8.60;99.90;;;;;;5119610;28;19943;-69